Portada
METAR-TAF:

METAR-TAF

Aeroports :

Akeno, Japó

latitud: 34-32N, longitud: 136-41E, altitud: 6 m

Observació

L'informe es va fer fa 20 hores i 27 minuts, a les 00:10 UTC
Vent 15 kt del Nord-Oest amb ràfegues de 26 kt
Temperatura 14°C
Humitat 58%
Pressió 1008 hPa
Visibilitat 10 km o més
Escasses núvols a una alçada de 2000 ft
Cel ennuvolat a una alçada de 5000 ft
Cel ennuvolat a una alçada de 23000 ft

METAR: RJOE 220010Z 31015G26KT 9999 FEW020 BKN050 BKN230 14/06 Q1008 RMK 2CU020 5SC050 6CI230 A2977

Hora: 05:37 (20:37 UTC)


TAF: manca

Observacions i pronòstics meteorològics de més de 4000 aeroports (METAR i TAF).

Les estacions disponibles són els punts grocs i vermells al mapa.

Posi el ratolí al punt desitjat per veure el nom de l'estació.

Feu clic per veure les observacions i els pronòstics meteorològics.

Per canviar el mapa: feu clic els botons verds amb una creu de color negre per apropar; al botó verd amb un guió per allunyar la imatge; o en les fletxes verdes per a mapes adjacents.


METAR-TAF: